Candiac, Canada
Current Conditions -  °F | °C
As of 6:00 PM on Tuesday 25 Nov 2014 (Local Time) from CYHU Reporting Station
Overcast Overcast  
Wind Chill: 33°   Ceiling: 3600
Heat Index: 43°   Visibility: 9mi
Dew Point: 30°   Wind: 28mph
Humidity: 61%   Direction: 240°WSW
Pressure: 29.9"   Gusts: NA
Location:  45.38°N, 73.52°W
Report Text: CYHU 252300Z AUTO 24024KT 9SM SCT030 BKN036 OVC045 06/M01 A2990 RMK SLP126
Loading
Personal Weather Stations






























Interactive Weather Map New forecast layout! Learn more

10-Day Weather Forecast

Advertisements
Track Severe Weather on mobile